Time;durP1;ratioP1;P1;durP2;ratioP2;P2;SDS_P1;SDS_P2;PMS_P1;PMS_P2;Temp;Humidity;BMP_temperature;BMP_pressure;BME280_temperature;BME280_humidity;BME280_pressure;Samples;Min_cycle;Max_cycle;Signal;HPM_P1;HPM_P2
2023/01/11 00:01:16;;;;;;;4.88;1.63;;;;;;;;;;5054959;28;20071;-77
2023/01/11 00:03:42;;;;;;;5.15;1.95;;;;;;;;;;5058675;28;20033;-77
2023/01/11 00:06:09;;;;;;;9.52;2.58;;;;;;;;;;5054971;28;20029;-77
2023/01/11 00:08:35;;;;;;;8.73;2.10;;;;;;;;;;5058934;28;20041;-77
2023/01/11 00:11:01;;;;;;;10.80;5.85;;;;;;;;;;5059161;28;20032;-77
2023/01/11 00:13:28;;;;;;;10.40;5.57;;;;;;;;;;5059033;28;20041;-77
2023/01/11 00:15:54;;;;;;;8.52;3.75;;;;;;;;;;5040933;28;20451;-77
2023/01/11 00:18:20;;;;;;;8.23;2.58;;;;;;;;;;5058051;28;20025;-77
2023/01/11 00:20:46;;;;;;;11.73;5.60;;;;;;;;;;5058836;28;20071;-77
2023/01/11 00:23:12;;;;;;;12.05;6.85;;;;;;;;;;5057484;28;20120;-77
2023/01/11 00:25:38;;;;;;;14.05;7.25;;;;;;;;;;5057627;28;20027;-76
2023/01/11 00:28:04;;;;;;;10.05;5.40;;;;;;;;;;5046287;28;20068;-76
2023/01/11 00:30:30;;;;;;;8.48;3.17;;;;;;;;;;5053610;28;20395;-77
2023/01/11 00:33:00;;;;;;;5.93;2.42;;;;;;;;;;5030968;28;20033;-76
2023/01/11 00:35:26;;;;;;;6.03;2.55;;;;;;;;;;5056431;28;20017;-77
2023/01/11 00:37:53;;;;;;;6.60;2.00;;;;;;;;;;5056592;28;20029;-76
2023/01/11 00:40:19;;;;;;;6.68;2.75;;;;;;;;;;5059253;28;20047;-76
2023/01/11 00:48:15;;;;;;;7.38;2.25;;;;;;;;;;5056337;28;20063;-77
2023/01/11 00:50:41;;;;;;;5.25;1.98;;;;;;;;;;5059101;28;20071;-77
2023/01/11 00:53:07;;;;;;;4.22;1.35;;;;;;;;;;5057085;28;20037;-76
2023/01/11 00:55:34;;;;;;;8.30;3.15;;;;;;;;;;5057905;28;20029;-77
2023/01/11 00:58:00;;;;;;;5.82;2.38;;;;;;;;;;5057372;28;20037;-77
2023/01/11 01:00:27;;;;;;;6.35;2.05;;;;;;;;;;5058482;28;20075;-77
2023/01/11 01:02:53;;;;;;;6.03;1.80;;;;;;;;;;5053397;28;20033;-77
2023/01/11 01:05:19;;;;;;;8.00;2.33;;;;;;;;;;5058444;28;20444;-77
2023/01/11 01:07:45;;;;;;;7.65;3.00;;;;;;;;;;5059286;28;20519;-77
2023/01/11 01:10:13;;;;;;;8.02;2.30;;;;;;;;;;5057383;28;20498;-77
2023/01/11 01:15:24;;;;;;;5.65;2.22;;;;;;;;;;5050419;28;20410;-77
2023/01/11 01:17:52;;;;;;;5.85;2.45;;;;;;;;;;5052839;28;20043;-77
2023/01/11 01:20:19;;;;;;;6.00;2.40;;;;;;;;;;5058433;28;20036;-77
2023/01/11 01:22:45;;;;;;;6.82;1.80;;;;;;;;;;5059343;28;20021;-77
2023/01/11 01:25:11;;;;;;;3.97;1.40;;;;;;;;;;5042264;28;20487;-77
2023/01/11 01:27:37;;;;;;;4.68;1.63;;;;;;;;;;5040479;28;20029;-77
2023/01/11 01:30:04;;;;;;;5.93;1.63;;;;;;;;;;5059166;28;20446;-77
2023/01/11 01:32:30;;;;;;;5.75;2.25;;;;;;;;;;5058160;28;20025;-77
2023/01/11 01:34:56;;;;;;;8.88;2.42;;;;;;;;;;5058454;28;20075;-77
2023/01/11 01:37:22;;;;;;;6.82;1.95;;;;;;;;;;5058578;28;20029;-77
2023/01/11 01:39:48;;;;;;;5.13;2.08;;;;;;;;;;5049303;28;20025;-77
2023/01/11 01:42:15;;;;;;;5.80;1.40;;;;;;;;;;5038007;28;20034;-77
2023/01/11 01:44:56;;;;;;;5.50;2.00;;;;;;;;;;5053597;28;20029;-77
2023/01/11 01:47:42;;;;;;;4.57;1.50;;;;;;;;;;5057861;28;20706;-77
2023/01/11 01:50:21;;;;;;;8.02;2.30;;;;;;;;;;5033367;28;20042;-77
2023/01/11 01:52:48;;;;;;;6.20;2.03;;;;;;;;;;5037056;28;20433;-77
2023/01/11 01:55:16;;;;;;;4.40;1.80;;;;;;;;;;5054621;28;20402;-77
2023/01/11 01:57:44;;;;;;;5.35;1.70;;;;;;;;;;5056393;28;20495;-77
2023/01/11 02:00:10;;;;;;;5.65;1.95;;;;;;;;;;5056530;28;20072;-77
2023/01/11 02:02:37;;;;;;;6.07;1.80;;;;;;;;;;5057391;28;20056;-77
2023/01/11 02:05:03;;;;;;;6.03;2.10;;;;;;;;;;5056807;28;20029;-77
2023/01/11 02:07:31;;;;;;;11.80;4.35;;;;;;;;;;5056668;28;20026;-77
2023/01/11 02:10:03;;;;;;;16.33;6.65;;;;;;;;;;5056709;28;20440;-77
2023/01/11 02:12:42;;;;;;;11.23;5.13;;;;;;;;;;5056353;28;20100;-77
2023/01/11 02:15:09;;;;;;;8.13;3.85;;;;;;;;;;5045180;28;20054;-77
2023/01/11 02:17:35;;;;;;;8.52;3.78;;;;;;;;;;5050738;28;20033;-77
2023/01/11 02:20:01;;;;;;;9.65;4.38;;;;;;;;;;5056233;28;20110;-77
2023/01/11 02:22:46;;;;;;;9.25;3.60;;;;;;;;;;5056220;28;20044;-77
2023/01/11 02:25:30;;;;;;;9.00;3.60;;;;;;;;;;5055769;28;20100;-76
2023/01/11 02:28:12;;;;;;;7.70;3.47;;;;;;;;;;5054954;28;20048;-76
2023/01/11 02:30:38;;;;;;;;;;;;;;;;;;5055162;28;20048;-76
2023/01/11 02:33:13;;;;;;;6.05;2.65;;;;;;;;;;5054720;28;19908;-77
2023/01/11 02:35:54;;;;;;;5.82;1.98;;;;;;;;;;5054468;28;20039;-76
2023/01/11 02:38:27;;;;;;;6.72;2.47;;;;;;;;;;5047034;28;20072;-77
2023/01/11 02:41:03;;;;;;;5.25;1.75;;;;;;;;;;5054516;28;20040;-77
2023/01/11 02:46:23;;;;;;;6.00;2.08;;;;;;;;;;5047671;28;20080;-76
2023/01/11 02:48:53;;;;;;;3.90;1.48;;;;;;;;;;5036195;28;20459;-77
2023/01/11 02:51:22;;;;;;;5.57;2.35;;;;;;;;;;5040060;28;20100;-77
2023/01/11 02:53:53;;;;;;;7.05;3.45;;;;;;;;;;5035396;28;20030;-77
2023/01/11 02:56:24;;;;;;;10.60;4.55;;;;;;;;;;5046233;28;20039;-77
2023/01/11 02:58:51;;;;;;;8.38;4.43;;;;;;;;;;5027735;28;20071;-77
2023/01/11 03:01:17;;;;;;;9.52;4.55;;;;;;;;;;5051792;28;20051;-77
2023/01/11 03:03:43;;;;;;;8.38;4.25;;;;;;;;;;5055389;28;20080;-77
2023/01/11 03:06:15;;;;;;;6.60;2.40;;;;;;;;;;5055384;28;20029;-76
2023/01/11 03:08:44;;;;;;;7.13;3.40;;;;;;;;;;5054868;28;20040;-77
2023/01/11 03:11:10;;;;;;;5.80;2.40;;;;;;;;;;5054726;28;20503;-77
2023/01/11 03:14:03;;;;;;;4.25;1.92;;;;;;;;;;5053824;28;20037;-76
2023/01/11 03:16:29;;;;;;;;;;;;;;;;;;5040465;28;20049;-76
2023/01/11 03:18:58;;;;;;;6.82;3.15;;;;;;;;;;5034585;28;19905;-77
2023/01/11 03:21:24;;;;;;;8.85;4.72;;;;;;;;;;5046476;28;20041;-77
2023/01/11 03:24:07;;;;;;;11.23;4.85;;;;;;;;;;5049608;28;20068;-77
2023/01/11 03:26:51;;;;;;;10.65;5.68;;;;;;;;;;5034678;28;20131;-77
2023/01/11 03:29:20;;;;;;;7.50;4.35;;;;;;;;;;5034081;28;20034;-77
2023/01/11 03:31:46;;;;;;;10.40;4.32;;;;;;;;;;5046565;28;20476;-77
2023/01/11 03:34:18;;;;;;;9.38;4.25;;;;;;;;;;5053941;28;20036;-77
2023/01/11 03:36:44;;;;;;;7.97;4.25;;;;;;;;;;5044842;28;20033;-77
2023/01/11 03:39:20;;;;;;;17.33;7.20;;;;;;;;;;5054308;28;20487;-77
2023/01/11 03:41:47;;;;;;;11.13;4.75;;;;;;;;;;5044450;28;20025;-77
2023/01/11 03:44:14;;;;;;;8.25;4.20;;;;;;;;;;5053595;28;20028;-77
2023/01/11 03:46:46;;;;;;;7.32;3.78;;;;;;;;;;5053647;28;20036;-76
2023/01/11 03:49:32;;;;;;;11.80;4.90;;;;;;;;;;5053996;28;20043;-77
2023/01/11 03:52:00;;;;;;;10.75;6.20;;;;;;;;;;5022602;28;20431;-77
2023/01/11 03:54:27;;;;;;;10.40;4.90;;;;;;;;;;5054068;28;20456;-77
2023/01/11 03:56:58;;;;;;;10.20;4.47;;;;;;;;;;5053618;28;20518;-76
2023/01/11 03:59:25;;;;;;;8.10;3.53;;;;;;;;;;5053953;28;20066;-77
2023/01/11 04:01:52;;;;;;;6.97;2.70;;;;;;;;;;5054078;28;20027;-77
2023/01/11 04:04:18;;;;;;;9.52;5.43;;;;;;;;;;5054519;28;20047;-77
2023/01/11 04:06:44;;;;;;;13.23;8.52;;;;;;;;;;5054246;28;20108;-76
2023/01/11 04:09:10;;;;;;;9.25;5.55;;;;;;;;;;5054015;28;20067;-76
2023/01/11 04:11:36;;;;;;;8.05;2.22;;;;;;;;;;5054116;28;20037;-77
2023/01/11 04:14:02;;;;;;;6.88;2.42;;;;;;;;;;5035660;28;20044;-77
2023/01/11 04:16:28;;;;;;;3.95;1.35;;;;;;;;;;5033927;28;20045;-77
2023/01/11 04:18:54;;;;;;;8.25;4.85;;;;;;;;;;5053310;28;20033;-77
2023/01/11 04:21:20;;;;;;;14.05;5.43;;;;;;;;;;5055016;28;20036;-77
2023/01/11 04:23:46;;;;;;;6.70;3.50;;;;;;;;;;5051820;28;20028;-77
2023/01/11 04:26:12;;;;;;;5.60;2.65;;;;;;;;;;5053711;28;20812;-77
2023/01/11 04:28:38;;;;;;;5.88;2.50;;;;;;;;;;5053243;28;20864;-77
2023/01/11 04:31:04;;;;;;;4.43;1.15;;;;;;;;;;5054351;28;20057;-76
2023/01/11 04:33:30;;;;;;;3.28;1.10;;;;;;;;;;5053923;28;20068;-77
2023/01/11 04:35:56;;;;;;;7.53;2.00;;;;;;;;;;5075463;23;20044;-77
2023/01/11 04:38:23;;;;;;;9.02;4.30;;;;;;;;;;5073634;28;20025;-76
2023/01/11 04:42:17;;;;;;;18.08;9.07;;;;;;;;;;5073955;28;20032;-77
2023/01/11 04:43:36;;;;;;;12.27;5.07;;;;;;;;;;5073141;28;20025;-77
2023/01/11 04:46:02;;;;;;;9.30;4.50;;;;;;;;;;5067583;28;20033;-77
2023/01/11 04:48:28;;;;;;;8.50;4.70;;;;;;;;;;5064349;28;20463;-77
2023/01/11 04:50:54;;;;;;;10.82;5.10;;;;;;;;;;5073524;28;20037;-76
2023/01/11 04:53:20;;;;;;;4.55;1.70;;;;;;;;;;5071878;28;20033;-77
2023/01/11 04:55:46;;;;;;;2.45;0.70;;;;;;;;;;5073806;28;20036;-77
2023/01/11 04:58:12;;;;;;;4.35;1.70;;;;;;;;;;5073540;28;20494;-77
2023/01/11 05:00:38;;;;;;;3.85;0.80;;;;;;;;;;5073554;28;20036;-76
2023/01/11 05:03:04;;;;;;;6.70;1.30;;;;;;;;;;5072538;28;20028;-77
2023/01/11 05:05:30;;;;;;;73.35;36.15;;;;;;;;;;5073388;28;20363;-77
2023/01/11 05:07:56;;;;;;;18.75;9.93;;;;;;;;;;5071774;28;20116;-77
2023/01/11 05:10:22;;;;;;;2.83;1.00;;;;;;;;;;5073181;28;20482;-77
2023/01/11 05:12:48;;;;;;;6.38;1.50;;;;;;;;;;5073036;28;20037;-77
2023/01/11 05:15:14;;;;;;;3.78;1.60;;;;;;;;;;5073558;28;20460;-77
2023/01/11 05:17:40;;;;;;;7.63;3.30;;;;;;;;;;5072928;28;20066;-76
2023/01/11 05:20:06;;;;;;;7.47;4.25;;;;;;;;;;5073134;28;20086;-77
2023/01/11 05:22:32;;;;;;;17.00;8.50;;;;;;;;;;5072982;28;20035;-77
2023/01/11 05:24:58;;;;;;;17.50;13.10;;;;;;;;;;5072900;28;20056;-77
2023/01/11 05:27:24;;;;;;;3.72;0.98;;;;;;;;;;5075627;28;20067;-77
2023/01/11 05:29:50;;;;;;;4.47;1.02;;;;;;;;;;5076077;28;20498;-77
2023/01/11 05:32:16;;;;;;;2.97;0.80;;;;;;;;;;5076631;28;20025;-76
2023/01/11 05:34:42;;;;;;;5.68;2.28;;;;;;;;;;5071476;28;20045;-77
2023/01/11 05:37:08;;;;;;;6.70;3.25;;;;;;;;;;5070739;28;20028;-76
2023/01/11 05:39:34;;;;;;;2.28;0.90;;;;;;;;;;5077003;28;20029;-77
2023/01/11 05:42:00;;;;;;;4.10;1.20;;;;;;;;;;5077154;28;20028;-77
2023/01/11 05:47:10;;;;;;;6.85;3.53;;;;;;;;;;5073069;28;20106;-78
2023/01/11 05:49:36;;;;;;;9.80;4.00;;;;;;;;;;5076284;28;20463;-77
2023/01/11 05:52:02;;;;;;;8.48;4.00;;;;;;;;;;5076321;28;20038;-77
2023/01/11 05:54:28;;;;;;;8.07;4.55;;;;;;;;;;5076111;28;20108;-77
2023/01/11 05:56:56;;;;;;;7.60;3.28;;;;;;;;;;5075776;28;20127;-76
2023/01/11 05:59:22;;;;;;;5.45;2.60;;;;;;;;;;5076049;28;20450;-77
2023/01/11 06:01:48;;;;;;;3.97;0.75;;;;;;;;;;5076710;28;20028;-77
2023/01/11 06:04:14;;;;;;;6.55;3.00;;;;;;;;;;5076161;28;20077;-77
2023/01/11 06:06:40;;;;;;;8.23;3.92;;;;;;;;;;5077871;28;20104;-77
2023/01/11 06:09:06;;;;;;;9.52;4.13;;;;;;;;;;5075891;28;20372;-77
2023/01/11 06:11:32;;;;;;;10.13;4.57;;;;;;;;;;5074934;28;20503;-77
2023/01/11 06:13:58;;;;;;;8.00;3.53;;;;;;;;;;5077564;28;20120;-77
2023/01/11 06:16:24;;;;;;;9.10;2.80;;;;;;;;;;5077875;28;20065;-77
2023/01/11 06:18:51;;;;;;;6.35;2.72;;;;;;;;;;5075992;28;20029;-77
2023/01/11 06:21:18;;;;;;;5.63;2.60;;;;;;;;;;5065498;28;20032;-77
2023/01/11 06:23:45;;;;;;;7.60;3.25;;;;;;;;;;5074708;28;20050;-77
2023/01/11 06:26:12;;;;;;;7.03;3.58;;;;;;;;;;5074204;28;20468;-77
2023/01/11 06:28:39;;;;;;;7.57;3.95;;;;;;;;;;5069959;28;20033;-77
2023/01/11 06:31:05;;;;;;;7.70;3.25;;;;;;;;;;5077145;28;20043;-77
2023/01/11 06:33:31;;;;;;;10.05;3.30;;;;;;;;;;5076564;28;20036;-77
2023/01/11 06:35:58;;;;;;;8.85;3.70;;;;;;;;;;5059845;28;20183;-76
2023/01/11 06:38:24;;;;;;;9.85;2.70;;;;;;;;;;5074069;28;20029;-77
2023/01/11 06:40:54;;;;;;;4.15;1.27;;;;;;;;;;5069846;28;20040;-77
2023/01/11 06:43:21;;;;;;;3.28;0.80;;;;;;;;;;5076382;28;20417;-78
2023/01/11 06:45:47;;;;;;;2.58;0.82;;;;;;;;;;5075250;28;20098;-77
2023/01/11 06:48:13;;;;;;;10.43;4.70;;;;;;;;;;5075600;28;20051;-78
2023/01/11 06:50:39;;;;;;;12.48;6.43;;;;;;;;;;5074043;28;20446;-76
2023/01/11 06:53:05;;;;;;;10.20;4.72;;;;;;;;;;5058476;28;20025;-76
2023/01/11 06:55:32;;;;;;;9.93;4.45;;;;;;;;;;5072932;28;20036;-76
2023/01/11 06:57:58;;;;;;;13.50;5.50;;;;;;;;;;5065289;28;20028;-76
2023/01/11 07:00:24;;;;;;;3.97;1.10;;;;;;;;;;5074370;28;20091;-77
2023/01/11 07:02:50;;;;;;;5.72;1.77;;;;;;;;;;5071688;28;20029;-77
2023/01/11 07:05:17;;;;;;;7.15;2.15;;;;;;;;;;5068376;28;20420;-76
2023/01/11 07:07:43;;;;;;;11.18;5.95;;;;;;;;;;5072711;28;20017;-76
2023/01/11 07:10:11;;;;;;;10.27;5.35;;;;;;;;;;5072630;28;20036;-76
2023/01/11 07:12:37;;;;;;;10.23;5.70;;;;;;;;;;5070997;28;20025;-76
2023/01/11 07:15:04;;;;;;;4.78;1.42;;;;;;;;;;5074072;28;20086;-76
2023/01/11 07:17:30;;;;;;;4.45;1.92;;;;;;;;;;5072464;28;20056;-76
2023/01/11 07:19:56;;;;;;;6.22;2.80;;;;;;;;;;5069598;28;20033;-76
2023/01/11 07:22:22;;;;;;;3.53;1.00;;;;;;;;;;5072676;28;20078;-76
2023/01/11 07:24:49;;;;;;;4.85;0.80;;;;;;;;;;5072554;28;20032;-77
2023/01/11 07:27:15;;;;;;;7.05;3.38;;;;;;;;;;5070328;28;20028;-77
2023/01/11 07:29:41;;;;;;;14.05;7.32;;;;;;;;;;5068187;28;20043;-77
2023/01/11 07:32:09;;;;;;;23.65;12.63;;;;;;;;;;5076481;28;20032;-78
2023/01/11 07:34:35;;;;;;;40.55;25.88;;;;;;;;;;5078328;28;20044;-77
2023/01/11 07:37:01;;;;;;;38.25;25.90;;;;;;;;;;5059533;28;20025;-77
2023/01/11 07:39:27;;;;;;;42.25;29.30;;;;;;;;;;5074757;28;20035;-77
2023/01/11 07:44:38;;;;;;;23.73;14.52;;;;;;;;;;5075152;28;20044;-76
2023/01/11 07:47:04;;;;;;;25.77;14.93;;;;;;;;;;5076435;28;20463;-77
2023/01/11 07:49:30;;;;;;;30.55;17.33;;;;;;;;;;5072527;28;20078;-76
2023/01/11 07:51:56;;;;;;;27.77;17.60;;;;;;;;;;5073089;28;20112;-77
2023/01/11 07:54:23;;;;;;;26.45;15.93;;;;;;;;;;5073611;28;20036;-76
2023/01/11 07:56:49;;;;;;;131.07;57.88;;;;;;;;;;5055080;28;20024;-76
2023/01/11 07:59:15;;;;;;;137.73;65.68;;;;;;;;;;5079218;28;20040;-76
2023/01/11 08:01:41;;;;;;;116.57;57.13;;;;;;;;;;5067885;28;20021;-77
2023/01/11 08:04:10;;;;;;;110.30;50.88;;;;;;;;;;5073158;28;20370;-77
2023/01/11 08:06:37;;;;;;;104.82;50.05;;;;;;;;;;5075291;28;20028;-77
2023/01/11 08:09:03;;;;;;;73.57;36.08;;;;;;;;;;5073063;28;20588;-76
2023/01/11 08:16:58;;;;;;;31.05;16.13;;;;;;;;;;5088935;28;20110;-77
2023/01/11 08:19:24;;;;;;;21.27;9.32;;;;;;;;;;5073998;28;20063;-76
2023/01/11 08:21:50;;;;;;;37.70;19.17;;;;;;;;;;5065905;28;20064;-77
2023/01/11 08:24:16;;;;;;;41.97;20.98;;;;;;;;;;5061423;28;20086;-77
2023/01/11 08:26:43;;;;;;;35.33;19.55;;;;;;;;;;5072095;28;20845;-77
2023/01/11 08:29:09;;;;;;;20.38;9.27;;;;;;;;;;5071040;28;20071;-77
2023/01/11 08:31:35;;;;;;;4.80;1.85;;;;;;;;;;5071312;28;20047;-76
2023/01/11 08:34:01;;;;;;;6.10;2.05;;;;;;;;;;5072902;28;20033;-77
2023/01/11 08:36:27;;;;;;;8.43;3.85;;;;;;;;;;5071281;28;20060;-77
2023/01/11 08:38:54;;;;;;;19.40;8.35;;;;;;;;;;5067145;28;20025;-76
2023/01/11 08:41:20;;;;;;;22.25;9.15;;;;;;;;;;5053129;28;20460;-76
2023/01/11 08:43:48;;;;;;;25.48;11.43;;;;;;;;;;5070569;28;20455;-76
2023/01/11 08:46:14;;;;;;;21.58;10.10;;;;;;;;;;5065086;28;20031;-76
2023/01/11 08:48:40;;;;;;;14.80;6.13;;;;;;;;;;5072089;28;20356;-76
2023/01/11 08:51:07;;;;;;;13.23;6.35;;;;;;;;;;5070106;28;20417;-76
2023/01/11 08:53:33;;;;;;;18.58;9.35;;;;;;;;;;5070686;28;20107;-77
2023/01/11 08:55:59;;;;;;;15.73;9.20;;;;;;;;;;5065354;28;20151;-77
2023/01/11 08:58:25;;;;;;;20.58;10.68;;;;;;;;;;5072939;28;20069;-76
2023/01/11 09:00:51;;;;;;;9.93;4.95;;;;;;;;;;5073877;28;20349;-76
2023/01/11 09:03:17;;;;;;;13.07;6.30;;;;;;;;;;5077929;28;20025;-76
2023/01/11 09:05:44;;;;;;;17.63;8.77;;;;;;;;;;5083374;28;20370;-76
2023/01/11 09:08:10;;;;;;;48.95;21.25;;;;;;;;;;5066569;28;20436;-75
2023/01/11 09:10:36;;;;;;;35.47;14.80;;;;;;;;;;5084261;28;20041;-75
2023/01/11 09:13:03;;;;;;;18.63;7.82;;;;;;;;;;5083929;28;20028;-76
2023/01/11 09:15:29;;;;;;;13.02;4.78;;;;;;;;;;5094611;28;21075;-76
2023/01/11 09:17:55;;;;;;;12.07;4.07;;;;;;;;;;5076610;28;20423;-76
2023/01/11 09:20:21;;;;;;;7.72;1.70;;;;;;;;;;5081004;28;20109;-75
2023/01/11 09:22:48;;;;;;;3.13;1.08;;;;;;;;;;5077694;28;20028;-75
2023/01/11 09:25:14;;;;;;;8.07;2.58;;;;;;;;;;5080131;28;20036;-76
2023/01/11 09:27:44;;;;;;;5.30;1.60;;;;;;;;;;5076008;28;20043;-76
2023/01/11 09:30:11;;;;;;;9.23;2.60;;;;;;;;;;5077011;28;20041;-76
2023/01/11 09:32:37;;;;;;;4.53;1.38;;;;;;;;;;5076039;28;20411;-76
2023/01/11 09:35:03;;;;;;;3.28;1.20;;;;;;;;;;5076386;28;20052;-76
2023/01/11 09:37:29;;;;;;;2.65;0.90;;;;;;;;;;5080998;28;20111;-76
2023/01/11 09:39:58;;;;;;;9.93;3.30;;;;;;;;;;5076386;28;20032;-76
2023/01/11 09:42:31;;;;;;;15.25;6.68;;;;;;;;;;5069590;28;20524;-76
2023/01/11 09:45:13;;;;;;;11.88;4.93;;;;;;;;;;5073810;28;20043;-76
2023/01/11 09:47:42;;;;;;;27.48;16.05;;;;;;;;;;5062526;28;20052;-76
2023/01/11 09:50:16;;;;;;;24.83;12.05;;;;;;;;;;5076179;28;20048;-76
2023/01/11 09:52:43;;;;;;;7.15;2.22;;;;;;;;;;5055823;28;20491;-75
2023/01/11 09:55:13;;;;;;;7.65;2.92;;;;;;;;;;5077276;28;20037;-75
2023/01/11 09:57:50;;;;;;;16.85;7.95;;;;;;;;;;5062272;28;20032;-75
2023/01/11 10:00:26;;;;;;;11.15;5.75;;;;;;;;;;5076246;28;20029;-75
2023/01/11 10:02:54;;;;;;;14.35;6.35;;;;;;;;;;5065240;28;20024;-77
2023/01/11 10:05:38;;;;;;;20.50;13.00;;;;;;;;;;5073304;28;20478;-77
2023/01/11 10:08:20;;;;;;;5.13;1.60;;;;;;;;;;5071580;28;20028;-77
2023/01/11 10:11:06;;;;;;;3.70;1.40;;;;;;;;;;5072450;28;20417;-76
2023/01/11 10:13:45;;;;;;;3.85;1.20;;;;;;;;;;5064700;28;20047;-76
2023/01/11 10:16:31;;;;;;;5.47;1.25;;;;;;;;;;5065550;28;20380;-76
2023/01/11 10:19:11;;;;;;;4.95;1.73;;;;;;;;;;5071175;28;20027;-77
2023/01/11 10:21:41;;;;;;;5.60;1.75;;;;;;;;;;5068563;28;20031;-77
2023/01/11 10:24:15;;;;;;;3.63;1.60;;;;;;;;;;5078955;28;20065;-76
2023/01/11 10:26:41;;;;;;;3.80;1.65;;;;;;;;;;5075104;28;20039;-76
2023/01/11 10:29:21;;;;;;;6.43;1.15;;;;;;;;;;5077814;28;20036;-76
2023/01/11 10:32:32;;;;;;;6.32;2.47;;;;;;;;;;5077270;28;20028;-76
2023/01/11 10:43:02;;;;;;;8.10;3.45;;;;;;;;;;5070079;28;20467;-76
2023/01/11 10:45:45;;;;;;;8.38;3.08;;;;;;;;;;5076728;28;20020;-76
2023/01/11 10:48:32;;;;;;;9.05;3.05;;;;;;;;;;5074774;28;20044;-76
2023/01/11 10:50:58;;;;;;;7.75;3.40;;;;;;;;;;5025407;28;20045;-76
2023/01/11 10:53:29;;;;;;;8.82;3.78;;;;;;;;;;5074849;28;20489;-75
2023/01/11 10:56:01;;;;;;;22.77;12.18;;;;;;;;;;5064238;28;20068;-76
2023/01/11 10:58:27;;;;;;;13.88;6.10;;;;;;;;;;5073183;28;20062;-76
2023/01/11 11:00:57;;;;;;;13.18;6.50;;;;;;;;;;5078177;28;20542;-76
2023/01/11 11:03:32;;;;;;;13.60;6.43;;;;;;;;;;5083466;28;20025;-76
2023/01/11 11:06:07;;;;;;;15.70;6.72;;;;;;;;;;5074683;28;20074;-75
2023/01/11 11:08:39;;;;;;;9.63;4.30;;;;;;;;;;5073168;28;20064;-76
2023/01/11 11:11:10;;;;;;;8.18;3.25;;;;;;;;;;5074877;28;20047;-75
2023/01/11 11:13:57;;;;;;;6.82;2.53;;;;;;;;;;5078388;28;20039;-76
2023/01/11 11:16:23;;;;;;;7.88;4.15;;;;;;;;;;5083498;28;20043;-76
2023/01/11 11:18:50;;;;;;;12.68;6.18;;;;;;;;;;5083562;28;20043;-76
2023/01/11 11:21:43;;;;;;;15.23;6.80;;;;;;;;;;5069443;28;20491;-76
2023/01/11 11:24:26;;;;;;;26.95;10.98;;;;;;;;;;5061853;28;20538;-77
2023/01/11 11:26:56;;;;;;;15.70;6.35;;;;;;;;;;5072082;28;20055;-76
2023/01/11 11:29:29;;;;;;;10.35;5.30;;;;;;;;;;5072429;28;20064;-77
2023/01/11 11:31:56;;;;;;;11.15;5.60;;;;;;;;;;5073304;28;20054;-76
2023/01/11 11:34:26;;;;;;;7.55;4.05;;;;;;;;;;5063505;28;20383;-75
2023/01/11 11:36:53;;;;;;;10.07;3.97;;;;;;;;;;5051909;28;20075;-76
2023/01/11 11:39:19;;;;;;;28.27;15.70;;;;;;;;;;5069812;28;20037;-75
2023/01/11 11:41:49;;;;;;;28.48;18.98;;;;;;;;;;5073466;28;20033;-77
2023/01/11 11:44:25;;;;;;;23.15;13.65;;;;;;;;;;5074020;28;20037;-76
2023/01/11 11:46:59;;;;;;;27.20;17.67;;;;;;;;;;5073944;28;20103;-76
2023/01/11 11:49:25;;;;;;;24.23;13.40;;;;;;;;;;5073064;28;20299;-76
2023/01/11 11:51:52;;;;;;;19.73;10.88;;;;;;;;;;5072138;28;20036;-76
2023/01/11 11:54:23;;;;;;;33.55;19.40;;;;;;;;;;5072710;28;20078;-76
2023/01/11 11:56:50;;;;;;;21.63;12.40;;;;;;;;;;5071739;28;20037;-77
2023/01/11 11:59:19;;;;;;;21.88;12.75;;;;;;;;;;5062672;28;20278;-78
2023/01/11 12:01:46;;;;;;;45.47;28.42;;;;;;;;;;5071785;28;20032;-79
2023/01/11 12:04:14;;;;;;;30.85;18.27;;;;;;;;;;5070540;28;20044;-78
2023/01/11 12:06:41;;;;;;;28.88;17.77;;;;;;;;;;5071198;28;20074;-78
2023/01/11 12:09:23;;;;;;;28.33;16.45;;;;;;;;;;5069748;28;20088;-79
2023/01/11 12:11:49;;;;;;;18.08;10.15;;;;;;;;;;5072076;28;20027;-79
2023/01/11 12:14:17;;;;;;;18.83;10.43;;;;;;;;;;5073173;28;20052;-78
2023/01/11 12:16:43;;;;;;;20.95;9.00;;;;;;;;;;5075489;28;20028;-78
2023/01/11 12:19:26;;;;;;;18.35;8.38;;;;;;;;;;5068004;28;20036;-78
2023/01/11 12:21:52;;;;;;;15.82;8.88;;;;;;;;;;5068089;28;20033;-78
2023/01/11 12:24:19;;;;;;;14.13;7.20;;;;;;;;;;5072956;28;20370;-78
2023/01/11 12:27:04;;;;;;;11.70;6.03;;;;;;;;;;5073607;28;20033;-77
2023/01/11 12:29:37;;;;;;;24.65;14.60;;;;;;;;;;5074503;28;20047;-78
2023/01/11 12:32:15;;;;;;;39.20;23.30;;;;;;;;;;5073528;28;20142;-78
2023/01/11 12:35:02;;;;;;;40.92;22.73;;;;;;;;;;5071448;28;20407;-78
2023/01/11 12:37:28;;;;;;;36.92;20.92;;;;;;;;;;5030731;28;20048;-78
2023/01/11 12:39:59;;;;;;;34.10;21.80;;;;;;;;;;5072571;28;20352;-77
2023/01/11 12:42:28;;;;;;;31.13;18.33;;;;;;;;;;5067074;28;20036;-78
2023/01/11 12:45:11;;;;;;;30.42;15.63;;;;;;;;;;5081946;28;20036;-77
2023/01/11 12:47:58;;;;;;;26.35;16.13;;;;;;;;;;5073950;28;20028;-77
2023/01/11 12:50:24;;;;;;;35.45;19.95;;;;;;;;;;5074881;28;20379;-78
2023/01/11 12:53:09;;;;;;;43.40;22.25;;;;;;;;;;5075127;28;20096;-78
2023/01/11 12:55:44;;;;;;;33.50;17.15;;;;;;;;;;5074074;28;20036;-78
2023/01/11 12:58:16;;;;;;;22.05;12.02;;;;;;;;;;5066023;28;20029;-78
2023/01/11 13:00:42;;;;;;;21.10;9.35;;;;;;;;;;5079169;28;20041;-77
2023/01/11 13:03:14;;;;;;;22.20;10.65;;;;;;;;;;5071301;28;20058;-77
2023/01/11 13:05:43;;;;;;;22.85;13.07;;;;;;;;;;5076616;28;20029;-77
2023/01/11 13:08:25;;;;;;;24.13;12.23;;;;;;;;;;5064438;28;20048;-78
2023/01/11 13:11:03;;;;;;;30.02;17.30;;;;;;;;;;5066464;28;20024;-77
2023/01/11 13:13:36;;;;;;;33.75;20.42;;;;;;;;;;5071631;28;20103;-78
2023/01/11 13:16:16;;;;;;;33.90;20.40;;;;;;;;;;5070952;28;20036;-77
2023/01/11 13:18:42;;;;;;;31.80;18.15;;;;;;;;;;5070387;28;20016;-78
2023/01/11 13:21:08;;;;;;;30.95;17.67;;;;;;;;;;5071297;28;20032;-77
2023/01/11 13:23:40;;;;;;;29.98;19.02;;;;;;;;;;5054551;28;20349;-77
2023/01/11 13:26:12;;;;;;;29.58;18.13;;;;;;;;;;5072990;28;20523;-76
2023/01/11 13:28:40;;;;;;;29.35;19.00;;;;;;;;;;5072457;28;20055;-76
2023/01/11 13:31:08;;;;;;;27.15;13.52;;;;;;;;;;5067290;28;20037;-76
2023/01/11 13:33:36;;;;;;;22.85;12.10;;;;;;;;;;5065527;28;20037;-76
2023/01/11 13:36:13;;;;;;;25.50;14.30;;;;;;;;;;5071345;28;20127;-76
2023/01/11 13:38:46;;;;;;;28.85;16.95;;;;;;;;;;5064080;28;20021;-75
2023/01/11 13:41:24;;;;;;;23.42;13.50;;;;;;;;;;5070218;28;20575;-75
2023/01/11 13:43:55;;;;;;;31.98;17.83;;;;;;;;;;5067204;28;20029;-76
2023/01/11 13:46:30;;;;;;;26.98;15.80;;;;;;;;;;5063941;28;20063;-75
2023/01/11 13:49:02;;;;;;;26.88;16.25;;;;;;;;;;5075982;28;20032;-76
2023/01/11 13:51:33;;;;;;;26.83;16.90;;;;;;;;;;5071815;28;20051;-75
2023/01/11 13:54:03;;;;;;;25.58;15.07;;;;;;;;;;5073866;28;20032;-75
2023/01/11 13:56:33;;;;;;;23.63;14.02;;;;;;;;;;5077161;28;20028;-76
2023/01/11 13:59:09;;;;;;;31.23;15.23;;;;;;;;;;5053818;28;20394;-74
2023/01/11 14:01:38;;;;;;;29.00;17.58;;;;;;;;;;5072733;28;20024;-76
2023/01/11 14:04:06;;;;;;;28.38;16.35;;;;;;;;;;5068559;28;20498;-76
2023/01/11 14:06:41;;;;;;;29.15;18.92;;;;;;;;;;5078568;28;20066;-74
2023/01/11 14:09:25;;;;;;;36.15;19.92;;;;;;;;;;5073579;28;20058;-76
2023/01/11 14:11:51;;;;;;;28.85;16.23;;;;;;;;;;5072630;28;20032;-75
2023/01/11 14:14:24;;;;;;;25.45;16.70;;;;;;;;;;5074414;28;20042;-75
2023/01/11 14:16:59;;;;;;;33.78;21.08;;;;;;;;;;5072679;28;20032;-75
2023/01/11 14:19:28;;;;;;;40.10;26.38;;;;;;;;;;5069480;28;20785;-76
2023/01/11 14:22:03;;;;;;;30.27;19.80;;;;;;;;;;5070227;28;20394;-75
2023/01/11 14:24:32;;;;;;;32.67;21.90;;;;;;;;;;5069047;28;20087;-74
2023/01/11 14:27:14;;;;;;;30.60;19.55;;;;;;;;;;5071628;28;20063;-75
2023/01/11 14:29:40;;;;;;;;;;;;;;;;;;5080447;28;20348;-75
2023/01/11 14:32:19;;;;;;;31.05;21.17;;;;;;;;;;5074937;28;20003;-76
2023/01/11 14:34:45;;;;;;;35.25;23.75;;;;;;;;;;5049970;28;20041;-76
2023/01/11 14:37:17;;;;;;;21.98;13.18;;;;;;;;;;5073559;28;20036;-76
2023/01/11 14:39:43;;;;;;;14.15;8.93;;;;;;;;;;5078705;28;20413;-76
2023/01/11 14:42:32;;;;;;;17.50;10.82;;;;;;;;;;5075939;28;20067;-76
2023/01/11 14:45:04;;;;;;;37.22;25.83;;;;;;;;;;5073731;28;20127;-77
2023/01/11 14:48:00;;;;;;;39.28;25.40;;;;;;;;;;5070553;28;20029;-76
2023/01/11 14:50:32;;;;;;;35.45;24.98;;;;;;;;;;5001564;28;20498;-76
2023/01/11 14:52:59;;;;;;;28.08;16.67;;;;;;;;;;5063284;28;20033;-76
2023/01/11 14:55:26;;;;;;;12.25;5.00;;;;;;;;;;5071768;28;20120;-76
2023/01/11 14:57:55;;;;;;;10.05;3.65;;;;;;;;;;5063593;28;20774;-77
2023/01/11 15:00:21;;;;;;;9.85;3.88;;;;;;;;;;5076809;28;20032;-77
2023/01/11 15:03:18;;;;;;;12.63;5.07;;;;;;;;;;5074820;28;20031;-78
2023/01/11 15:06:03;;;;;;;16.52;11.50;;;;;;;;;;5058980;28;20398;-78
2023/01/11 15:09:04;;;;;;;33.25;22.95;;;;;;;;;;5073386;28;20028;-78
2023/01/11 15:11:32;;;;;;;24.27;14.73;;;;;;;;;;5014942;28;20042;-78
2023/01/11 15:14:19;;;;;;;22.70;16.85;;;;;;;;;;5060048;28;20036;-79
2023/01/11 15:19:33;;;;;;;25.40;14.13;;;;;;;;;;5065757;28;20475;-78
2023/01/11 15:22:01;;;;;;;22.77;14.00;;;;;;;;;;5072561;28;20040;-78